Time;durP1;ratioP1;P1;durP2;ratioP2;P2;SDS_P1;SDS_P2;PMS_P1;PMS_P2;Temp;Humidity;BMP_temperature;BMP_pressure;BME280_temperature;BME280_humidity;BME280_pressure;Samples;Min_cycle;Max_cycle;Signal;HPM_P1;HPM_P2
2022/08/07 00:01:40;;;;;;;2.50;2.23;;;;;;;;;;5093073;28;20410;-77
2022/08/07 00:04:08;;;;;;;3.43;2.50;;;;;;;;;;5093166;28;20445;-76
2022/08/07 00:06:35;;;;;;;3.80;2.20;;;;;;;;;;5092398;28;20464;-77
2022/08/07 00:09:02;;;;;;;2.63;2.43;;;;;;;;;;5093827;28;20429;-76
2022/08/07 00:11:29;;;;;;;3.23;2.70;;;;;;;;;;5095315;28;20453;-75
2022/08/07 00:13:57;;;;;;;2.33;2.13;;;;;;;;;;5093538;28;20773;-76
2022/08/07 00:16:24;;;;;;;3.23;2.50;;;;;;;;;;5090019;28;20548;-76
2022/08/07 00:18:53;;;;;;;2.23;2.03;;;;;;;;;;5091408;28;20430;-78
2022/08/07 00:21:20;;;;;;;4.20;2.37;;;;;;;;;;5092901;28;20446;-76
2022/08/07 00:23:47;;;;;;;3.80;2.13;;;;;;;;;;5092581;28;20444;-75
2022/08/07 00:26:15;;;;;;;3.20;2.70;;;;;;;;;;5092599;28;20984;-76
2022/08/07 00:28:43;;;;;;;3.80;2.20;;;;;;;;;;5093265;28;20520;-76
2022/08/07 00:31:10;;;;;;;3.20;2.60;;;;;;;;;;5093098;28;20536;-77
2022/08/07 00:33:38;;;;;;;5.43;2.43;;;;;;;;;;5094903;28;20450;-77
2022/08/07 00:36:07;;;;;;;4.20;2.50;;;;;;;;;;5093517;28;20555;-77
2022/08/07 00:38:36;;;;;;;3.70;2.43;;;;;;;;;;5090207;28;20527;-76
2022/08/07 00:41:03;;;;;;;5.00;2.77;;;;;;;;;;5089436;28;20410;-76
2022/08/07 00:43:31;;;;;;;2.47;2.27;;;;;;;;;;5092293;28;20541;-75
2022/08/07 00:45:58;;;;;;;5.07;2.50;;;;;;;;;;5092465;28;20425;-76
2022/08/07 00:48:25;;;;;;;8.00;2.70;;;;;;;;;;5092542;28;20439;-75
2022/08/07 00:50:52;;;;;;;4.33;2.27;;;;;;;;;;5092959;28;20803;-77
2022/08/07 00:53:22;;;;;;;3.90;2.37;;;;;;;;;;5092752;28;20487;-77
2022/08/07 00:55:49;;;;;;;3.40;2.43;;;;;;;;;;5094518;28;21011;-76
2022/08/07 00:58:16;;;;;;;3.57;2.70;;;;;;;;;;5093135;28;20439;-77
2022/08/07 01:00:44;;;;;;;3.33;2.77;;;;;;;;;;5089903;28;20433;-77
2022/08/07 01:03:11;;;;;;;2.90;2.47;;;;;;;;;;5090343;28;20447;-75
2022/08/07 01:05:39;;;;;;;4.07;2.50;;;;;;;;;;5092113;28;20431;-77
2022/08/07 01:08:07;;;;;;;2.90;2.60;;;;;;;;;;5091864;28;21016;-76
2022/08/07 01:10:35;;;;;;;2.67;2.43;;;;;;;;;;5091910;28;20522;-77
2022/08/07 01:13:02;;;;;;;4.10;2.80;;;;;;;;;;5092654;28;20489;-76
2022/08/07 01:15:30;;;;;;;4.00;2.57;;;;;;;;;;5092554;28;20459;-76
2022/08/07 01:17:57;;;;;;;2.73;2.47;;;;;;;;;;5094120;28;20550;-74
2022/08/07 01:20:34;;;;;;;2.70;2.50;;;;;;;;;;5093237;28;20424;-78
2022/08/07 01:23:03;;;;;;;3.30;2.77;;;;;;;;;;5089285;28;20875;-78
2022/08/07 01:25:30;;;;;;;2.93;2.63;;;;;;;;;;5089721;28;20459;-78
2022/08/07 01:27:58;;;;;;;3.17;2.70;;;;;;;;;;5091473;28;20463;-77
2022/08/07 01:30:26;;;;;;;3.30;3.00;;;;;;;;;;5091337;28;20852;-76
2022/08/07 01:32:53;;;;;;;3.80;2.97;;;;;;;;;;5091681;28;20581;-79
2022/08/07 01:35:20;;;;;;;3.00;2.63;;;;;;;;;;5092131;28;20543;-79
2022/08/07 01:37:48;;;;;;;3.97;2.80;;;;;;;;;;5092013;28;20491;-76
2022/08/07 01:40:20;;;;;;;4.60;2.90;;;;;;;;;;5092839;28;20928;-76
2022/08/07 01:42:47;;;;;;;3.67;3.00;;;;;;;;;;5092545;28;20485;-77
2022/08/07 01:45:14;;;;;;;3.60;2.70;;;;;;;;;;5089036;28;20444;-79
2022/08/07 01:47:42;;;;;;;4.30;2.43;;;;;;;;;;5089475;28;20895;-75
2022/08/07 01:50:10;;;;;;;3.60;2.80;;;;;;;;;;5091344;28;20892;-77
2022/08/07 01:52:39;;;;;;;2.93;2.63;;;;;;;;;;5091375;28;20488;-76
2022/08/07 01:55:08;;;;;;;4.10;3.17;;;;;;;;;;5091558;28;20449;-78
2022/08/07 01:57:38;;;;;;;3.23;2.53;;;;;;;;;;5091994;28;20470;-76
2022/08/07 02:00:07;;;;;;;4.83;2.70;;;;;;;;;;5091954;28;20465;-77
2022/08/07 02:02:37;;;;;;;5.33;2.83;;;;;;;;;;5092429;28;20442;-78
2022/08/07 02:05:06;;;;;;;2.73;2.53;;;;;;;;;;5091848;28;20946;-77
2022/08/07 02:07:35;;;;;;;2.70;2.43;;;;;;;;;;5088947;28;20821;-79
2022/08/07 02:10:03;;;;;;;3.40;2.87;;;;;;;;;;5089590;28;20461;-77
2022/08/07 02:12:34;;;;;;;3.10;2.77;;;;;;;;;;5091026;28;20481;-75
2022/08/07 02:15:04;;;;;;;2.83;2.50;;;;;;;;;;5091130;28;20447;-76
2022/08/07 02:17:31;;;;;;;3.50;2.80;;;;;;;;;;5091337;28;20465;-77
2022/08/07 02:20:00;;;;;;;3.03;2.73;;;;;;;;;;5091751;28;20449;-75
2022/08/07 02:22:28;;;;;;;3.30;2.50;;;;;;;;;;5090877;28;20446;-77
2022/08/07 02:24:56;;;;;;;3.40;2.63;;;;;;;;;;5093114;28;20470;-76
2022/08/07 02:27:24;;;;;;;3.47;2.70;;;;;;;;;;5091666;28;20519;-77
2022/08/07 02:29:52;;;;;;;3.10;2.90;;;;;;;;;;5088338;28;20472;-75
2022/08/07 02:32:21;;;;;;;2.60;2.40;;;;;;;;;;5088263;28;20478;-76
2022/08/07 02:34:49;;;;;;;3.40;3.10;;;;;;;;;;5091132;28;20454;-76
2022/08/07 02:37:16;;;;;;;2.90;2.67;;;;;;;;;;5092246;28;20465;-79
2022/08/07 02:39:45;;;;;;;3.90;2.47;;;;;;;;;;5095607;28;20521;-76
2022/08/07 02:42:12;;;;;;;2.57;2.20;;;;;;;;;;5095295;28;20807;-77
2022/08/07 02:44:41;;;;;;;3.40;2.80;;;;;;;;;;5095633;28;20489;-77
2022/08/07 02:47:09;;;;;;;3.00;2.70;;;;;;;;;;5096943;28;20465;-77
2022/08/07 02:49:38;;;;;;;3.27;2.83;;;;;;;;;;5095372;28;20450;-77
2022/08/07 02:52:06;;;;;;;2.90;2.70;;;;;;;;;;5092198;28;20480;-76
2022/08/07 02:54:34;;;;;;;3.10;2.80;;;;;;;;;;5092671;28;20964;-77
2022/08/07 02:57:02;;;;;;;3.40;3.10;;;;;;;;;;5094393;28;20469;-76
2022/08/07 02:59:31;;;;;;;2.70;2.50;;;;;;;;;;5093390;28;20534;-77
2022/08/07 03:01:58;;;;;;;3.03;2.70;;;;;;;;;;5094354;28;21000;-78
2022/08/07 03:04:26;;;;;;;4.30;3.30;;;;;;;;;;5094886;28;20442;-77
2022/08/07 03:06:55;;;;;;;3.50;2.90;;;;;;;;;;5094883;28;20550;-76
2022/08/07 03:09:22;;;;;;;2.90;2.70;;;;;;;;;;5096269;28;20447;-76
2022/08/07 03:11:50;;;;;;;3.83;2.83;;;;;;;;;;5094884;28;20435;-74
2022/08/07 03:14:18;;;;;;;3.27;2.97;;;;;;;;;;5090743;28;20520;-76
2022/08/07 03:16:45;;;;;;;2.80;2.53;;;;;;;;;;5092339;28;20452;-77
2022/08/07 03:19:13;;;;;;;3.30;3.00;;;;;;;;;;5093937;28;20445;-77
2022/08/07 03:21:40;;;;;;;4.73;2.90;;;;;;;;;;5094007;28;20457;-76
2022/08/07 03:24:09;;;;;;;2.93;2.43;;;;;;;;;;5093751;28;20963;-78
2022/08/07 03:26:36;;;;;;;4.13;2.63;;;;;;;;;;5094553;28;20470;-78
2022/08/07 03:29:06;;;;;;;2.97;2.67;;;;;;;;;;5094581;28;20547;-78
2022/08/07 03:31:34;;;;;;;4.70;3.00;;;;;;;;;;5096167;28;20440;-76
2022/08/07 03:34:02;;;;;;;3.83;2.97;;;;;;;;;;5093282;28;20562;-77
2022/08/07 03:36:30;;;;;;;3.57;2.87;;;;;;;;;;5091161;28;20461;-77
2022/08/07 03:38:59;;;;;;;5.23;2.60;;;;;;;;;;5091077;28;20449;-78
2022/08/07 03:41:29;;;;;;;5.63;3.07;;;;;;;;;;5093629;28;20443;-75
2022/08/07 03:43:56;;;;;;;3.93;2.67;;;;;;;;;;5093504;28;20497;-76
2022/08/07 03:46:24;;;;;;;3.00;2.70;;;;;;;;;;5093575;28;20823;-76
2022/08/07 03:48:51;;;;;;;3.53;2.80;;;;;;;;;;5092878;28;20445;-76
2022/08/07 03:51:19;;;;;;;2.73;2.47;;;;;;;;;;5092549;28;20445;-77
2022/08/07 03:53:46;;;;;;;3.10;2.70;;;;;;;;;;5095554;28;20478;-76
2022/08/07 03:56:16;;;;;;;3.40;3.10;;;;;;;;;;5094197;28;20887;-76
2022/08/07 03:58:45;;;;;;;3.60;2.77;;;;;;;;;;5090927;28;20429;-77
2022/08/07 04:01:14;;;;;;;2.60;2.40;;;;;;;;;;5091446;28;20817;-76
2022/08/07 04:03:41;;;;;;;2.47;2.27;;;;;;;;;;5092954;28;20441;-75
2022/08/07 04:06:09;;;;;;;2.90;2.60;;;;;;;;;;5093172;28;20465;-78
2022/08/07 04:08:36;;;;;;;4.47;2.90;;;;;;;;;;5093229;28;20448;-75
2022/08/07 04:11:03;;;;;;;3.30;2.77;;;;;;;;;;5092368;28;20455;-76
2022/08/07 04:13:31;;;;;;;3.10;2.50;;;;;;;;;;5093526;28;20496;-76
2022/08/07 04:15:59;;;;;;;2.90;2.53;;;;;;;;;;5094961;28;20534;-75
2022/08/07 04:18:27;;;;;;;3.03;2.70;;;;;;;;;;5093944;28;20910;-76
2022/08/07 04:20:54;;;;;;;3.10;2.80;;;;;;;;;;5090093;28;20941;-78
2022/08/07 04:23:22;;;;;;;3.40;2.60;;;;;;;;;;5090954;28;20432;-75
2022/08/07 04:25:49;;;;;;;4.13;2.60;;;;;;;;;;5092434;28;20467;-77
2022/08/07 04:28:16;;;;;;;2.50;2.30;;;;;;;;;;5092673;28;20828;-77
2022/08/07 04:30:47;;;;;;;3.00;2.60;;;;;;;;;;5092812;28;20442;-77
2022/08/07 04:33:17;;;;;;;2.57;2.27;;;;;;;;;;5093358;28;20839;-77
2022/08/07 04:35:44;;;;;;;3.57;2.80;;;;;;;;;;5092981;28;20943;-78
2022/08/07 04:38:12;;;;;;;4.87;2.57;;;;;;;;;;5094913;28;20797;-76
2022/08/07 04:40:40;;;;;;;3.07;2.80;;;;;;;;;;5093551;28;20538;-76
2022/08/07 04:43:07;;;;;;;3.70;2.47;;;;;;;;;;5089878;28;20465;-77
2022/08/07 04:45:38;;;;;;;2.90;2.47;;;;;;;;;;5090645;28;20437;-77
2022/08/07 04:48:07;;;;;;;4.23;2.77;;;;;;;;;;5092260;28;20976;-75
2022/08/07 04:50:38;;;;;;;3.10;2.80;;;;;;;;;;5092643;28;20506;-76
2022/08/07 04:53:07;;;;;;;3.47;3.03;;;;;;;;;;5092291;28;20478;-76
2022/08/07 04:55:37;;;;;;;3.17;2.43;;;;;;;;;;5092703;28;20446;-76
2022/08/07 04:58:09;;;;;;;3.40;2.70;;;;;;;;;;5092832;28;20482;-77
2022/08/07 05:00:39;;;;;;;2.90;2.40;;;;;;;;;;5094439;28;20446;-76
2022/08/07 05:03:11;;;;;;;4.90;2.97;;;;;;;;;;5090984;28;20800;-77
2022/08/07 05:05:43;;;;;;;4.20;2.67;;;;;;;;;;5089531;28;20435;-75
2022/08/07 05:08:15;;;;;;;3.37;2.87;;;;;;;;;;5090368;28;20453;-77
2022/08/07 05:10:46;;;;;;;3.73;3.00;;;;;;;;;;5092032;28;20801;-76
2022/08/07 05:13:16;;;;;;;4.17;2.40;;;;;;;;;;5091981;28;20477;-75
2022/08/07 05:15:45;;;;;;;3.73;3.20;;;;;;;;;;5091879;28;20948;-77
2022/08/07 05:18:14;;;;;;;3.63;2.70;;;;;;;;;;5092471;28;20466;-76
2022/08/07 05:20:45;;;;;;;2.90;2.53;;;;;;;;;;5092689;28;20451;-77
2022/08/07 05:23:17;;;;;;;3.17;2.87;;;;;;;;;;5093085;28;20814;-77
2022/08/07 05:25:44;;;;;;;3.00;2.70;;;;;;;;;;5089474;28;20506;-76
2022/08/07 05:28:13;;;;;;;2.50;2.30;;;;;;;;;;5089413;28;20804;-76
2022/08/07 05:30:41;;;;;;;2.53;2.33;;;;;;;;;;5090039;28;20447;-76
2022/08/07 05:33:10;;;;;;;4.90;2.30;;;;;;;;;;5091233;28;20498;-76
2022/08/07 05:35:37;;;;;;;2.50;2.30;;;;;;;;;;5091877;28;20443;-77
2022/08/07 05:38:07;;;;;;;4.30;2.97;;;;;;;;;;5091086;28;20813;-75
2022/08/07 05:40:35;;;;;;;3.13;2.83;;;;;;;;;;5091367;28;20458;-75
2022/08/07 05:43:02;;;;;;;2.83;2.43;;;;;;;;;;5093692;28;20856;-75
2022/08/07 05:45:30;;;;;;;2.53;2.33;;;;;;;;;;5093757;28;20844;-76
2022/08/07 05:47:59;;;;;;;3.00;2.70;;;;;;;;;;5088453;28;20452;-76
2022/08/07 05:50:26;;;;;;;2.73;2.53;;;;;;;;;;5089359;28;20439;-76
2022/08/07 05:52:53;;;;;;;3.63;2.80;;;;;;;;;;5090911;28;20455;-76
2022/08/07 05:55:22;;;;;;;4.10;3.10;;;;;;;;;;5091308;28;20442;-76
2022/08/07 05:57:51;;;;;;;7.50;3.07;;;;;;;;;;5091459;28;20550;-75
2022/08/07 06:00:18;;;;;;;5.20;2.83;;;;;;;;;;5091867;28;20782;-76
2022/08/07 06:02:48;;;;;;;3.17;2.87;;;;;;;;;;5091191;28;20416;-77
2022/08/07 06:05:15;;;;;;;3.07;2.77;;;;;;;;;;5093912;28;20417;-76
2022/08/07 06:07:43;;;;;;;3.07;2.77;;;;;;;;;;5093478;28;20465;-76
2022/08/07 06:10:12;;;;;;;2.97;2.70;;;;;;;;;;5089554;28;20530;-76
2022/08/07 06:12:40;;;;;;;5.80;2.50;;;;;;;;;;5088720;28;20767;-76
2022/08/07 06:15:09;;;;;;;4.80;3.37;;;;;;;;;;5091967;28;20926;-75
2022/08/07 06:17:37;;;;;;;2.80;2.60;;;;;;;;;;5094982;28;20557;-76
2022/08/07 06:20:04;;;;;;;4.40;3.10;;;;;;;;;;5095461;28;20453;-75
2022/08/07 06:22:32;;;;;;;5.60;3.30;;;;;;;;;;5095744;28;20543;-76
2022/08/07 06:25:00;;;;;;;3.40;3.10;;;;;;;;;;5094695;28;20995;-75
2022/08/07 06:27:27;;;;;;;3.60;2.87;;;;;;;;;;5097122;28;20498;-74
2022/08/07 06:29:55;;;;;;;4.10;3.70;;;;;;;;;;5097334;28;20423;-77
2022/08/07 06:32:22;;;;;;;2.93;2.50;;;;;;;;;;5093226;28;20443;-75
2022/08/07 06:34:49;;;;;;;3.80;2.80;;;;;;;;;;5094458;28;20467;-79
2022/08/07 06:37:17;;;;;;;4.27;3.03;;;;;;;;;;5094916;28;20494;-77
2022/08/07 06:39:44;;;;;;;2.93;2.40;;;;;;;;;;5094745;28;20443;-77
2022/08/07 06:42:13;;;;;;;4.37;2.73;;;;;;;;;;5095346;28;20467;-76
2022/08/07 06:44:41;;;;;;;2.90;2.70;;;;;;;;;;5095201;28;20924;-77
2022/08/07 06:47:09;;;;;;;3.10;2.53;;;;;;;;;;5094300;28;20463;-75
2022/08/07 06:49:37;;;;;;;2.97;2.50;;;;;;;;;;5097008;28;20529;-75
2022/08/07 06:52:05;;;;;;;2.70;2.50;;;;;;;;;;5096790;28;20443;-74
2022/08/07 06:54:32;;;;;;;3.33;2.57;;;;;;;;;;5093271;28;20820;-75
2022/08/07 06:57:00;;;;;;;3.77;2.67;;;;;;;;;;5092076;28;20498;-75
2022/08/07 06:59:31;;;;;;;2.90;2.70;;;;;;;;;;5093850;28;20449;-77
2022/08/07 07:01:59;;;;;;;5.63;2.87;;;;;;;;;;5094282;28;20808;-75
2022/08/07 07:04:29;;;;;;;4.37;2.67;;;;;;;;;;5094918;28;20538;-77
2022/08/07 07:06:56;;;;;;;4.00;3.00;;;;;;;;;;5094698;28;20516;-76
2022/08/07 07:09:25;;;;;;;3.07;2.53;;;;;;;;;;5094114;28;20443;-74
2022/08/07 07:12:02;;;;;;;3.80;2.03;;;;;;;;;;5096499;28;20874;-76
2022/08/07 07:14:31;;;;;;;2.27;2.07;;;;;;;;;;5096481;28;20474;-75
2022/08/07 07:17:00;;;;;;;3.73;2.20;;;;;;;;;;5093323;28;20470;-76
2022/08/07 07:19:31;;;;;;;2.50;2.30;;;;;;;;;;5090515;28;20439;-77
2022/08/07 07:21:58;;;;;;;2.53;2.20;;;;;;;;;;5092848;28;20932;-75
2022/08/07 07:24:26;;;;;;;3.93;2.23;;;;;;;;;;5093675;28;20805;-75
2022/08/07 07:26:55;;;;;;;3.03;2.03;;;;;;;;;;5093021;28;20463;-76
2022/08/07 07:29:25;;;;;;;3.60;2.40;;;;;;;;;;5094262;28;20448;-74
2022/08/07 07:31:54;;;;;;;2.90;2.20;;;;;;;;;;5093930;28;20461;-74
2022/08/07 07:34:23;;;;;;;2.10;1.80;;;;;;;;;;5093922;28;20471;-75
2022/08/07 07:36:52;;;;;;;4.33;2.00;;;;;;;;;;5094748;28;20477;-77
2022/08/07 07:39:20;;;;;;;2.40;1.90;;;;;;;;;;5094193;28;20868;-80
2022/08/07 07:41:50;;;;;;;3.40;2.27;;;;;;;;;;5090298;28;20431;-88
2022/08/07 07:44:17;;;;;;;2.20;1.63;;;;;;;;;;5091764;28;20442;-81
2022/08/07 07:46:45;;;;;;;2.30;1.80;;;;;;;;;;5093541;28;20550;-77
2022/08/07 07:49:15;;;;;;;2.00;1.80;;;;;;;;;;5093544;28;20526;-76
2022/08/07 07:51:43;;;;;;;1.60;1.50;;;;;;;;;;5092303;28;20443;-78
2022/08/07 07:54:13;;;;;;;1.93;1.50;;;;;;;;;;5093864;28;20475;-76
2022/08/07 07:56:40;;;;;;;1.70;1.60;;;;;;;;;;5094140;28;20573;-78
2022/08/07 07:59:08;;;;;;;3.67;1.83;;;;;;;;;;5095239;28;20454;-78
2022/08/07 08:01:36;;;;;;;2.60;1.73;;;;;;;;;;5096382;28;20435;-77
2022/08/07 08:04:05;;;;;;;2.37;1.50;;;;;;;;;;5091481;28;20781;-78
2022/08/07 08:06:33;;;;;;;1.50;1.40;;;;;;;;;;5090277;28;20539;-76
2022/08/07 08:09:01;;;;;;;2.37;1.70;;;;;;;;;;5092672;28;20532;-75
2022/08/07 08:11:30;;;;;;;2.40;1.10;;;;;;;;;;5091843;28;20447;-77
2022/08/07 08:13:57;;;;;;;2.37;1.47;;;;;;;;;;5092298;28;20471;-78
2022/08/07 08:16:28;;;;;;;1.20;1.10;;;;;;;;;;5093434;28;21163;-80
2022/08/07 08:18:56;;;;;;;1.60;1.20;;;;;;;;;;5093584;28;20443;-78
2022/08/07 08:29:30;;;;;;;1.10;0.90;;;;;;;;;;5090795;28;20920;-77
2022/08/07 08:31:58;;;;;;;1.40;1.23;;;;;;;;;;5092226;28;20439;-78
2022/08/07 08:34:25;;;;;;;3.10;1.40;;;;;;;;;;5092856;28;20580;-79
2022/08/07 08:36:54;;;;;;;1.70;1.40;;;;;;;;;;5093115;28;20471;-77
2022/08/07 08:39:23;;;;;;;1.73;1.20;;;;;;;;;;5092905;28;20821;-79
2022/08/07 08:41:57;;;;;;;1.83;1.30;;;;;;;;;;5092856;28;20474;-77
2022/08/07 08:44:26;;;;;;;5.70;1.40;;;;;;;;;;5094707;28;20799;-80
2022/08/07 08:46:56;;;;;;;1.20;1.10;;;;;;;;;;5093285;28;20815;-79
2022/08/07 08:49:26;;;;;;;1.90;1.13;;;;;;;;;;5090066;28;20428;-79
2022/08/07 08:51:57;;;;;;;1.40;1.10;;;;;;;;;;5089363;28;20488;-78
2022/08/07 08:54:27;;;;;;;1.40;1.10;;;;;;;;;;5090592;28;21140;-80
2022/08/07 08:56:56;;;;;;;1.50;1.27;;;;;;;;;;5090889;28;20485;-76
2022/08/07 08:59:28;;;;;;;1.80;1.20;;;;;;;;;;5092374;28;20988;-81
2022/08/07 09:02:00;;;;;;;1.50;1.20;;;;;;;;;;5092679;28;20482;-80
2022/08/07 09:04:30;;;;;;;1.30;1.20;;;;;;;;;;5092507;28;20454;-75
2022/08/07 09:07:01;;;;;;;1.63;1.27;;;;;;;;;;5093108;28;20516;-76
2022/08/07 09:09:32;;;;;;;1.70;1.10;;;;;;;;;;5094336;28;20454;-75
2022/08/07 09:12:05;;;;;;;2.00;1.10;;;;;;;;;;5089834;28;20446;-74
2022/08/07 09:14:34;;;;;;;1.43;1.10;;;;;;;;;;5088546;28;20474;-77
2022/08/07 09:17:05;;;;;;;1.30;1.10;;;;;;;;;;5090330;28;20906;-76
2022/08/07 09:19:42;;;;;;;1.80;1.17;;;;;;;;;;5091700;28;20450;-76
2022/08/07 09:22:14;;;;;;;3.20;1.20;;;;;;;;;;5091990;28;20439;-76
2022/08/07 09:24:47;;;;;;;2.40;1.30;;;;;;;;;;5092209;28;20574;-75
2022/08/07 09:27:24;;;;;;;1.70;1.30;;;;;;;;;;5091925;28;21002;-77
2022/08/07 09:29:56;;;;;;;2.30;1.13;;;;;;;;;;5092846;28;20439;-76
2022/08/07 09:32:29;;;;;;;5.47;1.30;;;;;;;;;;5094072;28;20443;-75
2022/08/07 09:35:01;;;;;;;2.23;1.00;;;;;;;;;;5089013;28;20514;-77
2022/08/07 09:37:34;;;;;;;1.47;1.20;;;;;;;;;;5089722;28;20459;-75
2022/08/07 09:40:04;;;;;;;1.37;1.00;;;;;;;;;;5089916;28;20976;-78
2022/08/07 09:42:44;;;;;;;6.17;1.20;;;;;;;;;;5090280;28;20526;-77
2022/08/07 09:45:15;;;;;;;2.57;1.20;;;;;;;;;;5091575;28;20811;-79
2022/08/07 09:47:46;;;;;;;2.00;1.20;;;;;;;;;;5092130;28;20465;-77
2022/08/07 09:50:19;;;;;;;1.37;1.20;;;;;;;;;;5091648;28;20447;-75
2022/08/07 09:52:48;;;;;;;2.90;1.30;;;;;;;;;;5093761;28;20534;-75
2022/08/07 09:55:17;;;;;;;2.07;1.20;;;;;;;;;;5093266;28;20975;-79
2022/08/07 09:57:55;;;;;;;2.77;1.30;;;;;;;;;;5087698;28;20473;-77
2022/08/07 10:00:24;;;;;;;1.20;1.10;;;;;;;;;;5089713;28;20441;-76
2022/08/07 10:02:57;;;;;;;2.00;1.30;;;;;;;;;;5091121;28;20448;-78
2022/08/07 10:05:31;;;;;;;1.40;1.10;;;;;;;;;;5091279;28;20465;-76
2022/08/07 10:08:03;;;;;;;1.07;0.90;;;;;;;;;;5091287;28;20459;-75
2022/08/07 10:10:34;;;;;;;1.50;1.20;;;;;;;;;;5092062;28;20452;-75
2022/08/07 10:13:12;;;;;;;2.90;1.07;;;;;;;;;;5091926;28;20459;-75
2022/08/07 10:15:47;;;;;;;1.40;0.90;;;;;;;;;;5093403;28;20482;-76
2022/08/07 10:18:29;;;;;;;1.50;1.10;;;;;;;;;;5092263;28;20450;-77
2022/08/07 10:21:09;;;;;;;2.03;1.00;;;;;;;;;;5089099;28;21315;-76
2022/08/07 10:23:43;;;;;;;1.87;0.93;;;;;;;;;;5089968;28;20530;-77
2022/08/07 10:26:17;;;;;;;1.43;1.20;;;;;;;;;;5090926;28;20463;-77
2022/08/07 10:28:53;;;;;;;1.27;1.10;;;;;;;;;;5091595;28;20449;-77
2022/08/07 10:31:30;;;;;;;1.70;1.20;;;;;;;;;;5091441;28;20530;-77
2022/08/07 10:34:08;;;;;;;1.73;1.10;;;;;;;;;;5090330;28;20439;-78
2022/08/07 10:36:41;;;;;;;2.07;1.30;;;;;;;;;;5092760;28;20973;-76
2022/08/07 10:39:13;;;;;;;1.33;1.10;;;;;;;;;;5093309;28;20434;-74
2022/08/07 10:41:42;;;;;;;2.53;1.10;;;;;;;;;;5090203;28;20539;-78
2022/08/07 10:44:16;;;;;;;1.43;1.00;;;;;;;;;;5088854;28;20527;-76
2022/08/07 10:47:00;;;;;;;1.77;1.20;;;;;;;;;;5090126;28;20451;-74
2022/08/07 10:49:36;;;;;;;1.30;1.10;;;;;;;;;;5091081;28;20869;-75
2022/08/07 10:52:06;;;;;;;2.03;1.10;;;;;;;;;;5091441;28;20438;-75
2022/08/07 10:54:37;;;;;;;2.17;1.20;;;;;;;;;;5091727;28;20481;-74
2022/08/07 10:57:10;;;;;;;1.10;1.00;;;;;;;;;;5089445;28;20474;-75
2022/08/07 10:59:52;;;;;;;2.70;1.20;;;;;;;;;;5091809;28;20439;-75
2022/08/07 11:02:25;;;;;;;2.90;1.30;;;;;;;;;;5093483;28;20438;-75
2022/08/07 11:04:59;;;;;;;1.37;1.20;;;;;;;;;;5092735;28;20427;-75
2022/08/07 11:07:38;;;;;;;1.80;1.00;;;;;;;;;;5091989;28;20461;-76
2022/08/07 11:10:09;;;;;;;1.40;1.10;;;;;;;;;;5093875;28;20449;-77
2022/08/07 11:12:39;;;;;;;1.30;0.90;;;;;;;;;;5093942;28;20435;-76
2022/08/07 11:15:08;;;;;;;1.97;1.07;;;;;;;;;;5094604;28;20481;-76
2022/08/07 11:17:42;;;;;;;1.37;1.20;;;;;;;;;;5094614;28;20661;-77
2022/08/07 11:20:13;;;;;;;2.10;1.10;;;;;;;;;;5094433;28;20465;-74
2022/08/07 11:22:42;;;;;;;1.33;1.03;;;;;;;;;;5096347;28;20533;-76
2022/08/07 11:25:11;;;;;;;1.87;1.10;;;;;;;;;;5096062;28;20467;-78
2022/08/07 11:27:43;;;;;;;1.10;1.00;;;;;;;;;;5091129;28;20465;-77
2022/08/07 11:30:14;;;;;;;1.50;1.20;;;;;;;;;;5090139;28;20560;-77
2022/08/07 11:32:46;;;;;;;1.33;1.00;;;;;;;;;;5073390;28;20539;-76
2022/08/07 11:35:18;;;;;;;2.43;1.53;;;;;;;;;;5073456;28;20559;-76
2022/08/07 11:38:00;;;;;;;1.63;1.37;;;;;;;;;;5073462;28;20494;-79
2022/08/07 11:40:32;;;;;;;1.10;1.00;;;;;;;;;;5073061;28;20808;-77
2022/08/07 11:43:01;;;;;;;1.20;1.00;;;;;;;;;;5080215;28;20459;-77
2022/08/07 11:45:35;;;;;;;2.07;1.30;;;;;;;;;;5095971;28;20427;-75
2022/08/07 11:48:14;;;;;;;1.60;1.20;;;;;;;;;;5096352;28;20872;-75
2022/08/07 11:50:47;;;;;;;1.23;1.10;;;;;;;;;;5091414;28;20804;-76
2022/08/07 11:53:20;;;;;;;1.50;1.10;;;;;;;;;;5092069;28;20438;-76
2022/08/07 11:55:57;;;;;;;2.13;1.20;;;;;;;;;;5091873;28;20481;-75
2022/08/07 11:58:29;;;;;;;1.67;1.10;;;;;;;;;;5093219;28;20444;-75
2022/08/07 12:00:59;;;;;;;1.57;1.00;;;;;;;;;;5093653;28;20446;-78
2022/08/07 12:03:37;;;;;;;1.43;1.13;;;;;;;;;;5093881;28;20534;-82
2022/08/07 12:06:13;;;;;;;2.50;1.00;;;;;;;;;;5093917;28;20466;-78
2022/08/07 12:08:45;;;;;;;1.40;1.20;;;;;;;;;;5095583;28;20538;-75
2022/08/07 12:11:16;;;;;;;1.40;1.30;;;;;;;;;;5090891;28;20427;-79
2022/08/07 12:13:47;;;;;;;1.40;1.10;;;;;;;;;;5090972;28;20966;-77
2022/08/07 12:16:17;;;;;;;1.30;1.20;;;;;;;;;;5092362;28;20906;-76
2022/08/07 12:18:49;;;;;;;1.40;1.30;;;;;;;;;;5093168;28;20982;-77
2022/08/07 12:21:21;;;;;;;1.77;1.20;;;;;;;;;;5093089;28;20467;-76
2022/08/07 12:23:51;;;;;;;1.57;1.20;;;;;;;;;;5093463;28;20796;-75
2022/08/07 12:26:23;;;;;;;1.73;1.30;;;;;;;;;;5093533;28;20483;-76
2022/08/07 12:28:54;;;;;;;1.93;1.30;;;;;;;;;;5095202;28;20534;-76
2022/08/07 12:31:24;;;;;;;2.20;1.20;;;;;;;;;;5094662;28;20534;-77
2022/08/07 12:33:54;;;;;;;1.83;1.20;;;;;;;;;;5090212;28;21011;-75
2022/08/07 12:36:22;;;;;;;2.70;1.20;;;;;;;;;;5090960;28;20524;-79
2022/08/07 12:38:49;;;;;;;2.50;1.30;;;;;;;;;;5092396;28;20447;-78
2022/08/07 12:41:17;;;;;;;1.63;1.13;;;;;;;;;;5092435;28;20474;-78
2022/08/07 12:43:45;;;;;;;2.33;1.20;;;;;;;;;;5092849;28;20542;-79
2022/08/07 12:46:27;;;;;;;1.73;1.40;;;;;;;;;;5085522;28;20554;-77
2022/08/07 12:48:58;;;;;;;1.50;1.27;;;;;;;;;;5082328;28;20443;-76
2022/08/07 12:51:27;;;;;;;1.20;1.00;;;;;;;;;;5088649;28;20427;-77
2022/08/07 12:53:58;;;;;;;1.77;1.40;;;;;;;;;;5090707;28;20458;-80
2022/08/07 12:56:27;;;;;;;1.40;1.10;;;;;;;;;;5090822;28;20683;-78
2022/08/07 12:58:55;;;;;;;1.67;1.10;;;;;;;;;;5075978;28;20474;-78
2022/08/07 13:01:29;;;;;;;1.73;1.27;;;;;;;;;;5091535;28;20944;-79
2022/08/07 13:04:05;;;;;;;1.30;1.10;;;;;;;;;;5091890;28;20480;-73
2022/08/07 13:06:45;;;;;;;3.03;1.33;;;;;;;;;;5079374;28;20478;-79
2022/08/07 13:09:14;;;;;;;1.53;1.00;;;;;;;;;;5094263;28;20496;-79
2022/08/07 13:11:48;;;;;;;1.80;1.40;;;;;;;;;;5090621;28;20460;-75
2022/08/07 13:14:20;;;;;;;1.40;1.10;;;;;;;;;;5088641;28;20451;-78
2022/08/07 13:16:49;;;;;;;3.97;1.70;;;;;;;;;;5090200;28;20581;-78
2022/08/07 13:19:22;;;;;;;3.67;1.60;;;;;;;;;;5071378;28;20944;-76
2022/08/07 13:21:53;;;;;;;1.50;1.20;;;;;;;;;;5076473;28;20459;-78
2022/08/07 13:24:24;;;;;;;1.90;1.10;;;;;;;;;;5089942;28;20482;-78
2022/08/07 13:26:54;;;;;;;2.17;1.10;;;;;;;;;;5085626;28;20485;-79
2022/08/07 13:29:24;;;;;;;1.50;1.10;;;;;;;;;;5085319;28;20454;-79
2022/08/07 13:31:54;;;;;;;1.67;1.07;;;;;;;;;;5093087;28;20813;-77
2022/08/07 13:34:26;;;;;;;1.70;1.30;;;;;;;;;;5073693;28;20546;-80
2022/08/07 13:36:55;;;;;;;1.33;1.10;;;;;;;;;;5087382;28;21242;-79
2022/08/07 13:39:35;;;;;;;1.20;1.00;;;;;;;;;;5089655;28;20436;-80
2022/08/07 13:42:03;;;;;;;1.20;1.00;;;;;;;;;;5080184;28;20456;-80
2022/08/07 13:44:33;;;;;;;2.37;1.20;;;;;;;;;;5070335;28;20548;-79
2022/08/07 13:47:01;;;;;;;1.57;1.20;;;;;;;;;;5070208;28;20456;-80
2022/08/07 13:49:34;;;;;;;2.83;1.13;;;;;;;;;;5070236;28;20824;-79
2022/08/07 13:52:03;;;;;;;2.60;1.00;;;;;;;;;;5072068;28;20548;-80
2022/08/07 13:54:32;;;;;;;1.87;1.10;;;;;;;;;;5079936;28;20483;-78
2022/08/07 13:57:02;;;;;;;1.37;1.10;;;;;;;;;;5087287;28;20562;-79
2022/08/07 13:59:31;;;;;;;1.43;1.07;;;;;;;;;;5089938;28;20542;-80
2022/08/07 14:02:06;;;;;;;2.33;1.10;;;;;;;;;;5088900;28;20443;-79
2022/08/07 14:04:37;;;;;;;1.77;1.20;;;;;;;;;;5071146;28;20496;-80
2022/08/07 14:07:06;;;;;;;3.30;1.10;;;;;;;;;;5069723;28;20460;-78
2022/08/07 14:09:38;;;;;;;3.63;1.23;;;;;;;;;;5070588;28;20817;-79
2022/08/07 14:12:08;;;;;;;1.30;1.00;;;;;;;;;;5078606;28;20455;-80
2022/08/07 14:14:42;;;;;;;1.40;1.27;;;;;;;;;;5086381;28;20447;-79
2022/08/07 14:17:11;;;;;;;2.30;1.20;;;;;;;;;;5073210;28;20484;-80
2022/08/07 14:19:48;;;;;;;1.47;1.00;;;;;;;;;;5073211;28;20938;-80
2022/08/07 14:22:18;;;;;;;1.20;1.10;;;;;;;;;;5083492;28;20951;-80
2022/08/07 14:24:49;;;;;;;2.57;1.00;;;;;;;;;;5088572;28;20492;-80
2022/08/07 14:27:18;;;;;;;3.47;1.20;;;;;;;;;;5076839;28;20452;-81
2022/08/07 14:29:48;;;;;;;1.30;1.10;;;;;;;;;;5069575;28;20444;-81
2022/08/07 14:32:16;;;;;;;1.37;1.17;;;;;;;;;;5076663;28;20436;-80
2022/08/07 14:34:46;;;;;;;4.43;1.23;;;;;;;;;;5088457;28;20530;-81
2022/08/07 14:37:14;;;;;;;2.97;1.20;;;;;;;;;;5073502;28;20997;-81
2022/08/07 14:39:42;;;;;;;2.07;1.00;;;;;;;;;;5075217;28;20444;-79
2022/08/07 14:42:11;;;;;;;1.17;1.00;;;;;;;;;;5074148;28;20444;-83
2022/08/07 14:44:39;;;;;;;1.60;1.30;;;;;;;;;;5084316;28;20446;-80
2022/08/07 14:47:06;;;;;;;1.93;1.10;;;;;;;;;;5092343;28;20447;-80
2022/08/07 14:49:35;;;;;;;2.37;1.20;;;;;;;;;;5092194;28;20443;-80
2022/08/07 14:52:04;;;;;;;2.93;1.20;;;;;;;;;;5094484;28;20446;-80
2022/08/07 14:54:33;;;;;;;1.30;1.20;;;;;;;;;;5094527;28;20447;-78
2022/08/07 14:57:01;;;;;;;1.13;0.90;;;;;;;;;;5094358;28;20529;-80
2022/08/07 14:59:28;;;;;;;2.33;1.63;;;;;;;;;;5094569;28;20535;-80
2022/08/07 15:01:57;;;;;;;5.80;1.10;;;;;;;;;;5093480;28;20988;-80
2022/08/07 15:04:26;;;;;;;1.10;0.90;;;;;;;;;;5092296;28;20428;-81
2022/08/07 15:06:53;;;;;;;2.27;1.10;;;;;;;;;;5092628;28;20542;-80